Accueil
METAR-TAF:

METAR-TAF

Aéroports :

Ellensburg, Washington, États-Unis

Bowers Field

latitude: 47-02-01N, longitude: 120-31-45W, altitude: 536 m

Observation

Le bulletin a été fait il y a 1 heure et 2 minutes, à 14:53 UTC
Vent 4 kt de est
Température -8°C
Humidité 67%
Pression 1021 hPa
Visibilité: 16.1 km
Nuages fragmentés à une hauteur de 4800 ft

METAR: KELN 201453Z AUTO 09004KT 10SM BKN048 M08/M13 A3014 RMK AO2 SLP229 T10831128 50001 TSNO

Heure: 07:55 (15:55 UTC)


TAF: absent

Observations et prévisions météorologiques de plus de 4000 aéroports (messages METAR et TAF).

Les stations disponibles sont représentées par des disques jaunes et rouges sur la carte.

Passer la souris dessus pour voir le nom de la station.

Cliquer dessus pour voir les observations et prévisions météorologiques.

Pour changer de carte: cliquez sur les boutons verts avec une croix noire pour zoomer, sur le bouton vert avec un tiret pour effectuer un zoom arrière, ou sur les flèches vertes pour les cartes adjacentes.


METAR-TAF: